Aerial Acres, California
Current Conditions -  °F | °C
As of 1:58 PM on Thursday 27 Nov 2014 (Local Time) from KEDW Reporting Station
Clear Clear  
Wind Chill: 68°   Ceiling: Unl
Heat Index: 68°   Visibility: 10mi
Dew Point: 12°   Wind: 0mph
Humidity: 11%   Direction: NA
Pressure: 30.16"   Gusts: NA
Location:  34.931°N, 117.867°W
Report Text: KEDW 272158Z AUTO 00000KT 10SM CLR 20/M11 A3016 RMK AO2 SLP210 T02011111
Loading
Personal Weather Stations






























Interactive Weather Map New forecast layout! Learn more

10-Day Weather Forecast

Advertisements
Track Severe Weather on mobile